sensor_id;sensor_type;location;lat;lon;timestamp;P1;durP1;ratioP1;P2;durP2;ratioP2
10661;SDS011;5379;51.034;7.006;2022-12-11T00:00:39;46.93;;;27.43;;
10661;SDS011;5379;51.034;7.006;2022-12-11T00:03:08;43.13;;;23.67;;
10661;SDS011;5379;51.034;7.006;2022-12-11T00:05:37;36.60;;;25.70;;
10661;SDS011;5379;51.034;7.006;2022-12-11T00:08:05;44.07;;;26.17;;
10661;SDS011;5379;51.034;7.006;2022-12-11T00:10:32;38.83;;;26.80;;
10661;SDS011;5379;51.034;7.006;2022-12-11T00:13:00;44.37;;;25.73;;
10661;SDS011;5379;51.034;7.006;2022-12-11T00:15:27;43.33;;;25.70;;
10661;SDS011;5379;51.034;7.006;2022-12-11T00:17:54;41.17;;;26.30;;
10661;SDS011;5379;51.034;7.006;2022-12-11T00:20:22;41.97;;;28.63;;
10661;SDS011;5379;51.034;7.006;2022-12-11T00:22:49;44.17;;;29.20;;
10661;SDS011;5379;51.034;7.006;2022-12-11T00:25:16;48.07;;;29.30;;
10661;SDS011;5379;51.034;7.006;2022-12-11T00:27:44;43.87;;;28.97;;
10661;SDS011;5379;51.034;7.006;2022-12-11T00:30:11;52.67;;;30.97;;
10661;SDS011;5379;51.034;7.006;2022-12-11T00:32:39;56.83;;;32.07;;
10661;SDS011;5379;51.034;7.006;2022-12-11T00:35:07;44.00;;;30.43;;
10661;SDS011;5379;51.034;7.006;2022-12-11T00:37:36;50.57;;;31.93;;
10661;SDS011;5379;51.034;7.006;2022-12-11T00:40:03;53.90;;;34.57;;
10661;SDS011;5379;51.034;7.006;2022-12-11T00:42:31;62.77;;;33.57;;
10661;SDS011;5379;51.034;7.006;2022-12-11T00:44:58;54.43;;;32.73;;
10661;SDS011;5379;51.034;7.006;2022-12-11T00:47:25;56.03;;;34.40;;
10661;SDS011;5379;51.034;7.006;2022-12-11T00:49:52;69.07;;;36.03;;
10661;SDS011;5379;51.034;7.006;2022-12-11T00:52:19;63.30;;;35.90;;
10661;SDS011;5379;51.034;7.006;2022-12-11T00:54:47;56.10;;;34.77;;
10661;SDS011;5379;51.034;7.006;2022-12-11T00:57:14;58.47;;;34.40;;
10661;SDS011;5379;51.034;7.006;2022-12-11T00:59:41;58.57;;;35.07;;
10661;SDS011;5379;51.034;7.006;2022-12-11T01:02:08;47.70;;;32.87;;
10661;SDS011;5379;51.034;7.006;2022-12-11T01:04:35;55.50;;;33.23;;
10661;SDS011;5379;51.034;7.006;2022-12-11T01:07:02;51.83;;;33.20;;
10661;SDS011;5379;51.034;7.006;2022-12-11T01:09:29;64.93;;;34.00;;
10661;SDS011;5379;51.034;7.006;2022-12-11T01:12:15;51.40;;;32.70;;
10661;SDS011;5379;51.034;7.006;2022-12-11T01:14:43;54.90;;;34.27;;
10661;SDS011;5379;51.034;7.006;2022-12-11T01:17:10;48.93;;;33.77;;
10661;SDS011;5379;51.034;7.006;2022-12-11T01:19:37;57.13;;;34.30;;
10661;SDS011;5379;51.034;7.006;2022-12-11T01:22:04;54.17;;;34.07;;
10661;SDS011;5379;51.034;7.006;2022-12-11T01:24:31;48.03;;;32.27;;
10661;SDS011;5379;51.034;7.006;2022-12-11T01:26:58;54.50;;;32.33;;
10661;SDS011;5379;51.034;7.006;2022-12-11T01:29:27;51.70;;;33.63;;
10661;SDS011;5379;51.034;7.006;2022-12-11T05:30:15;44.40;;;28.07;;
10661;SDS011;5379;51.034;7.006;2022-12-11T05:32:42;46.50;;;29.07;;
10661;SDS011;5379;51.034;7.006;2022-12-11T05:35:09;43.67;;;27.80;;
10661;SDS011;5379;51.034;7.006;2022-12-11T05:37:36;45.40;;;29.70;;
10661;SDS011;5379;51.034;7.006;2022-12-11T05:40:03;50.07;;;29.10;;
10661;SDS011;5379;51.034;7.006;2022-12-11T05:42:31;48.20;;;29.90;;
10661;SDS011;5379;51.034;7.006;2022-12-11T05:44:58;47.67;;;27.47;;
10661;SDS011;5379;51.034;7.006;2022-12-11T05:47:26;42.70;;;29.07;;
10661;SDS011;5379;51.034;7.006;2022-12-11T05:49:53;43.60;;;26.87;;
10661;SDS011;5379;51.034;7.006;2022-12-11T05:52:20;42.93;;;25.70;;
10661;SDS011;5379;51.034;7.006;2022-12-11T05:54:47;36.07;;;25.83;;
10661;SDS011;5379;51.034;7.006;2022-12-11T05:57:15;42.07;;;26.47;;
10661;SDS011;5379;51.034;7.006;2022-12-11T05:59:42;44.40;;;26.47;;
10661;SDS011;5379;51.034;7.006;2022-12-11T06:02:09;41.47;;;27.63;;
10661;SDS011;5379;51.034;7.006;2022-12-11T06:04:38;36.67;;;26.53;;
10661;SDS011;5379;51.034;7.006;2022-12-11T06:07:05;38.73;;;27.00;;
10661;SDS011;5379;51.034;7.006;2022-12-11T06:09:32;42.27;;;28.37;;
10661;SDS011;5379;51.034;7.006;2022-12-11T06:11:59;48.23;;;29.57;;
10661;SDS011;5379;51.034;7.006;2022-12-11T06:14:26;47.67;;;27.67;;
10661;SDS011;5379;51.034;7.006;2022-12-11T06:16:53;40.10;;;26.90;;
10661;SDS011;5379;51.034;7.006;2022-12-11T06:19:20;36.27;;;24.87;;
10661;SDS011;5379;51.034;7.006;2022-12-11T06:21:48;37.73;;;23.47;;
10661;SDS011;5379;51.034;7.006;2022-12-11T06:24:15;38.17;;;23.53;;
10661;SDS011;5379;51.034;7.006;2022-12-11T06:26:42;44.87;;;24.37;;
10661;SDS011;5379;51.034;7.006;2022-12-11T06:29:09;41.80;;;24.37;;
10661;SDS011;5379;51.034;7.006;2022-12-11T06:31:36;38.30;;;23.67;;
10661;SDS011;5379;51.034;7.006;2022-12-11T06:34:03;40.03;;;24.27;;
10661;SDS011;5379;51.034;7.006;2022-12-11T06:36:30;37.93;;;23.23;;
10661;SDS011;5379;51.034;7.006;2022-12-11T06:38:58;32.53;;;22.23;;
10661;SDS011;5379;51.034;7.006;2022-12-11T06:41:25;29.67;;;20.93;;
10661;SDS011;5379;51.034;7.006;2022-12-11T06:43:52;35.23;;;21.67;;
10661;SDS011;5379;51.034;7.006;2022-12-11T06:46:19;30.57;;;21.73;;
10661;SDS011;5379;51.034;7.006;2022-12-11T06:48:46;29.50;;;21.40;;
10661;SDS011;5379;51.034;7.006;2022-12-11T06:51:15;34.53;;;22.13;;
10661;SDS011;5379;51.034;7.006;2022-12-11T06:53:43;28.17;;;20.40;;
10661;SDS011;5379;51.034;7.006;2022-12-11T06:56:13;29.23;;;19.57;;
10661;SDS011;5379;51.034;7.006;2022-12-11T06:58:41;27.53;;;18.53;;
10661;SDS011;5379;51.034;7.006;2022-12-11T07:01:13;28.57;;;21.73;;
10661;SDS011;5379;51.034;7.006;2022-12-11T07:03:42;27.27;;;20.53;;
10661;SDS011;5379;51.034;7.006;2022-12-11T07:06:09;31.67;;;19.73;;
10661;SDS011;5379;51.034;7.006;2022-12-11T07:08:36;26.50;;;19.93;;
10661;SDS011;5379;51.034;7.006;2022-12-11T07:11:04;28.33;;;19.77;;
10661;SDS011;5379;51.034;7.006;2022-12-11T07:13:33;31.47;;;20.07;;
10661;SDS011;5379;51.034;7.006;2022-12-11T07:16:00;29.80;;;20.47;;
10661;SDS011;5379;51.034;7.006;2022-12-11T07:18:28;30.47;;;19.57;;
10661;SDS011;5379;51.034;7.006;2022-12-11T07:20:56;30.97;;;19.90;;
10661;SDS011;5379;51.034;7.006;2022-12-11T07:23:25;27.57;;;20.27;;
10661;SDS011;5379;51.034;7.006;2022-12-11T07:25:52;24.37;;;19.50;;
10661;SDS011;5379;51.034;7.006;2022-12-11T07:28:19;26.40;;;18.63;;
10661;SDS011;5379;51.034;7.006;2022-12-11T07:30:47;23.77;;;18.63;;
10661;SDS011;5379;51.034;7.006;2022-12-11T07:33:14;22.87;;;17.53;;
10661;SDS011;5379;51.034;7.006;2022-12-11T07:35:41;28.97;;;18.67;;
10661;SDS011;5379;51.034;7.006;2022-12-11T07:38:08;24.40;;;18.23;;
10661;SDS011;5379;51.034;7.006;2022-12-11T07:40:35;28.93;;;18.67;;
10661;SDS011;5379;51.034;7.006;2022-12-11T07:43:02;24.00;;;17.50;;
10661;SDS011;5379;51.034;7.006;2022-12-11T07:45:29;24.97;;;19.23;;
10661;SDS011;5379;51.034;7.006;2022-12-11T07:47:58;23.40;;;18.77;;
10661;SDS011;5379;51.034;7.006;2022-12-11T07:50:25;26.23;;;19.87;;
10661;SDS011;5379;51.034;7.006;2022-12-11T07:52:52;28.60;;;20.57;;
10661;SDS011;5379;51.034;7.006;2022-12-11T07:55:19;30.50;;;19.53;;
10661;SDS011;5379;51.034;7.006;2022-12-11T07:57:46;32.00;;;20.43;;
10661;SDS011;5379;51.034;7.006;2022-12-11T08:00:13;26.77;;;20.30;;
10661;SDS011;5379;51.034;7.006;2022-12-11T08:02:41;31.57;;;21.10;;
10661;SDS011;5379;51.034;7.006;2022-12-11T08:05:09;27.60;;;19.63;;
10661;SDS011;5379;51.034;7.006;2022-12-11T08:07:37;26.27;;;19.40;;
10661;SDS011;5379;51.034;7.006;2022-12-11T08:10:04;32.20;;;20.27;;
10661;SDS011;5379;51.034;7.006;2022-12-11T08:12:31;24.93;;;20.13;;
10661;SDS011;5379;51.034;7.006;2022-12-11T08:14:58;26.50;;;18.87;;
10661;SDS011;5379;51.034;7.006;2022-12-11T08:17:26;26.13;;;18.20;;
10661;SDS011;5379;51.034;7.006;2022-12-11T08:19:53;27.67;;;19.80;;
10661;SDS011;5379;51.034;7.006;2022-12-11T08:22:21;31.57;;;20.20;;
10661;SDS011;5379;51.034;7.006;2022-12-11T08:24:48;27.20;;;20.20;;
10661;SDS011;5379;51.034;7.006;2022-12-11T08:27:15;31.03;;;20.93;;
10661;SDS011;5379;51.034;7.006;2022-12-11T08:29:42;22.97;;;19.13;;
10661;SDS011;5379;51.034;7.006;2022-12-11T08:32:09;29.10;;;20.37;;
10661;SDS011;5379;51.034;7.006;2022-12-11T08:34:38;22.73;;;18.57;;
10661;SDS011;5379;51.034;7.006;2022-12-11T08:37:05;26.63;;;20.10;;
10661;SDS011;5379;51.034;7.006;2022-12-11T08:39:33;25.93;;;20.63;;
10661;SDS011;5379;51.034;7.006;2022-12-11T08:42:00;27.87;;;20.30;;
10661;SDS011;5379;51.034;7.006;2022-12-11T08:44:27;24.67;;;18.70;;
10661;SDS011;5379;51.034;7.006;2022-12-11T08:46:55;22.07;;;18.13;;
10661;SDS011;5379;51.034;7.006;2022-12-11T08:49:22;24.77;;;17.77;;
10661;SDS011;5379;51.034;7.006;2022-12-11T08:51:49;27.30;;;18.87;;
10661;SDS011;5379;51.034;7.006;2022-12-11T08:54:16;26.40;;;18.80;;
10661;SDS011;5379;51.034;7.006;2022-12-11T08:56:44;24.33;;;18.57;;
10661;SDS011;5379;51.034;7.006;2022-12-11T08:59:11;25.33;;;18.63;;
10661;SDS011;5379;51.034;7.006;2022-12-11T09:01:38;24.57;;;19.37;;
10661;SDS011;5379;51.034;7.006;2022-12-11T09:04:06;24.03;;;18.83;;
10661;SDS011;5379;51.034;7.006;2022-12-11T09:06:32;26.40;;;20.37;;
10661;SDS011;5379;51.034;7.006;2022-12-11T09:09:00;29.90;;;20.43;;
10661;SDS011;5379;51.034;7.006;2022-12-11T09:11:29;23.50;;;18.57;;
10661;SDS011;5379;51.034;7.006;2022-12-11T09:13:59;28.97;;;19.83;;
10661;SDS011;5379;51.034;7.006;2022-12-11T09:16:26;28.10;;;20.40;;
10661;SDS011;5379;51.034;7.006;2022-12-11T09:18:54;31.97;;;22.03;;
10661;SDS011;5379;51.034;7.006;2022-12-11T09:21:23;28.50;;;20.67;;
10661;SDS011;5379;51.034;7.006;2022-12-11T09:23:52;30.03;;;18.53;;
10661;SDS011;5379;51.034;7.006;2022-12-11T09:26:21;26.07;;;18.17;;
10661;SDS011;5379;51.034;7.006;2022-12-11T09:28:49;31.80;;;18.00;;
10661;SDS011;5379;51.034;7.006;2022-12-11T09:31:19;25.27;;;18.63;;
10661;SDS011;5379;51.034;7.006;2022-12-11T09:33:48;24.60;;;17.40;;
10661;SDS011;5379;51.034;7.006;2022-12-11T09:36:16;27.87;;;18.57;;
10661;SDS011;5379;51.034;7.006;2022-12-11T09:38:43;26.50;;;17.67;;
10661;SDS011;5379;51.034;7.006;2022-12-11T09:41:16;22.63;;;17.00;;
10661;SDS011;5379;51.034;7.006;2022-12-11T09:44:01;21.50;;;16.80;;
10661;SDS011;5379;51.034;7.006;2022-12-11T09:46:39;21.93;;;17.17;;
10661;SDS011;5379;51.034;7.006;2022-12-11T09:49:10;26.70;;;19.10;;
10661;SDS011;5379;51.034;7.006;2022-12-11T09:51:48;27.00;;;18.87;;
10661;SDS011;5379;51.034;7.006;2022-12-11T09:54:21;31.13;;;20.97;;
10661;SDS011;5379;51.034;7.006;2022-12-11T09:56:49;28.10;;;20.60;;
10661;SDS011;5379;51.034;7.006;2022-12-11T09:59:23;28.50;;;19.20;;
10661;SDS011;5379;51.034;7.006;2022-12-11T10:02:00;28.17;;;19.77;;
10661;SDS011;5379;51.034;7.006;2022-12-11T10:04:39;29.23;;;18.97;;
10661;SDS011;5379;51.034;7.006;2022-12-11T10:07:15;30.33;;;19.60;;
10661;SDS011;5379;51.034;7.006;2022-12-11T10:09:48;28.67;;;20.50;;
10661;SDS011;5379;51.034;7.006;2022-12-11T10:12:28;34.00;;;20.80;;
10661;SDS011;5379;51.034;7.006;2022-12-11T10:15:13;29.37;;;20.23;;
10661;SDS011;5379;51.034;7.006;2022-12-11T10:17:51;28.70;;;19.10;;
10661;SDS011;5379;51.034;7.006;2022-12-11T10:20:21;29.27;;;19.97;;
10661;SDS011;5379;51.034;7.006;2022-12-11T10:22:51;33.47;;;21.10;;
10661;SDS011;5379;51.034;7.006;2022-12-11T10:25:20;25.47;;;18.97;;
10661;SDS011;5379;51.034;7.006;2022-12-11T10:27:51;29.77;;;20.77;;
10661;SDS011;5379;51.034;7.006;2022-12-11T10:30:18;32.07;;;20.13;;
10661;SDS011;5379;51.034;7.006;2022-12-11T10:32:52;33.67;;;21.13;;
10661;SDS011;5379;51.034;7.006;2022-12-11T10:35:30;29.33;;;21.63;;
10661;SDS011;5379;51.034;7.006;2022-12-11T10:38:05;28.57;;;20.83;;
10661;SDS011;5379;51.034;7.006;2022-12-11T10:40:38;34.53;;;21.93;;
10661;SDS011;5379;51.034;7.006;2022-12-11T10:43:10;36.93;;;23.87;;
10661;SDS011;5379;51.034;7.006;2022-12-11T10:45:37;35.60;;;21.73;;
10661;SDS011;5379;51.034;7.006;2022-12-11T10:48:08;30.43;;;21.73;;
10661;SDS011;5379;51.034;7.006;2022-12-11T10:50:37;29.53;;;21.17;;
10661;SDS011;5379;51.034;7.006;2022-12-11T10:53:05;38.27;;;24.80;;
10661;SDS011;5379;51.034;7.006;2022-12-11T10:55:45;43.67;;;25.17;;
10661;SDS011;5379;51.034;7.006;2022-12-11T10:58:14;29.40;;;23.13;;
10661;SDS011;5379;51.034;7.006;2022-12-11T11:00:44;39.63;;;24.77;;
10661;SDS011;5379;51.034;7.006;2022-12-11T11:03:21;38.73;;;24.43;;
10661;SDS011;5379;51.034;7.006;2022-12-11T11:05:49;35.67;;;26.00;;
10661;SDS011;5379;51.034;7.006;2022-12-11T11:08:28;44.33;;;26.43;;
10661;SDS011;5379;51.034;7.006;2022-12-11T11:11:04;41.67;;;26.53;;
10661;SDS011;5379;51.034;7.006;2022-12-11T11:13:33;49.83;;;27.30;;
10661;SDS011;5379;51.034;7.006;2022-12-11T11:16:01;39.63;;;26.57;;
10661;SDS011;5379;51.034;7.006;2022-12-11T11:18:31;49.63;;;29.33;;
10661;SDS011;5379;51.034;7.006;2022-12-11T11:21:00;46.97;;;28.77;;
10661;SDS011;5379;51.034;7.006;2022-12-11T11:23:27;42.20;;;28.67;;
10661;SDS011;5379;51.034;7.006;2022-12-11T11:25:55;47.80;;;28.37;;
10661;SDS011;5379;51.034;7.006;2022-12-11T11:28:24;45.93;;;29.20;;
10661;SDS011;5379;51.034;7.006;2022-12-11T11:30:55;47.13;;;29.20;;
10661;SDS011;5379;51.034;7.006;2022-12-11T11:33:26;48.17;;;29.37;;
10661;SDS011;5379;51.034;7.006;2022-12-11T11:35:56;41.47;;;27.67;;
10661;SDS011;5379;51.034;7.006;2022-12-11T11:38:25;47.70;;;30.23;;
10661;SDS011;5379;51.034;7.006;2022-12-11T11:40:58;43.20;;;28.17;;
10661;SDS011;5379;51.034;7.006;2022-12-11T11:43:32;41.87;;;28.50;;
10661;SDS011;5379;51.034;7.006;2022-12-11T11:46:05;50.17;;;28.67;;
10661;SDS011;5379;51.034;7.006;2022-12-11T11:48:39;46.00;;;29.47;;
10661;SDS011;5379;51.034;7.006;2022-12-11T11:51:13;44.70;;;29.53;;
10661;SDS011;5379;51.034;7.006;2022-12-11T11:53:46;52.20;;;28.47;;
10661;SDS011;5379;51.034;7.006;2022-12-11T11:56:21;53.10;;;30.37;;
10661;SDS011;5379;51.034;7.006;2022-12-11T11:58:56;54.43;;;29.90;;
10661;SDS011;5379;51.034;7.006;2022-12-11T12:01:28;39.47;;;27.67;;
10661;SDS011;5379;51.034;7.006;2022-12-11T12:03:55;45.60;;;29.63;;
10661;SDS011;5379;51.034;7.006;2022-12-11T12:06:36;42.87;;;27.67;;
10661;SDS011;5379;51.034;7.006;2022-12-11T12:09:14;44.37;;;27.70;;
10661;SDS011;5379;51.034;7.006;2022-12-11T12:11:48;35.83;;;25.90;;
10661;SDS011;5379;51.034;7.006;2022-12-11T12:14:23;45.20;;;28.33;;
10661;SDS011;5379;51.034;7.006;2022-12-11T12:16:59;44.10;;;27.47;;
10661;SDS011;5379;51.034;7.006;2022-12-11T12:19:41;43.10;;;27.53;;
10661;SDS011;5379;51.034;7.006;2022-12-11T12:22:23;39.33;;;25.90;;
10661;SDS011;5379;51.034;7.006;2022-12-11T12:25:02;47.53;;;27.50;;
10661;SDS011;5379;51.034;7.006;2022-12-11T12:27:41;45.00;;;26.53;;
10661;SDS011;5379;51.034;7.006;2022-12-11T12:30:17;45.03;;;24.63;;
10661;SDS011;5379;51.034;7.006;2022-12-11T12:32:47;36.77;;;23.00;;
10661;SDS011;5379;51.034;7.006;2022-12-11T12:35:29;36.87;;;21.73;;
10661;SDS011;5379;51.034;7.006;2022-12-11T12:38:04;34.60;;;22.80;;
10661;SDS011;5379;51.034;7.006;2022-12-11T12:40:37;37.43;;;23.47;;
10661;SDS011;5379;51.034;7.006;2022-12-11T12:43:18;31.57;;;23.13;;
10661;SDS011;5379;51.034;7.006;2022-12-11T12:46:09;32.17;;;22.33;;
10661;SDS011;5379;51.034;7.006;2022-12-11T12:48:45;32.90;;;23.23;;
10661;SDS011;5379;51.034;7.006;2022-12-11T12:51:12;29.97;;;20.40;;
10661;SDS011;5379;51.034;7.006;2022-12-11T12:53:44;37.23;;;21.53;;
10661;SDS011;5379;51.034;7.006;2022-12-11T12:56:15;30.13;;;21.80;;
10661;SDS011;5379;51.034;7.006;2022-12-11T12:58:43;34.37;;;21.83;;
10661;SDS011;5379;51.034;7.006;2022-12-11T13:01:14;30.00;;;19.83;;
10661;SDS011;5379;51.034;7.006;2022-12-11T13:03:50;36.77;;;23.17;;
10661;SDS011;5379;51.034;7.006;2022-12-11T13:06:30;32.70;;;19.50;;
10661;SDS011;5379;51.034;7.006;2022-12-11T13:09:11;29.93;;;19.40;;
10661;SDS011;5379;51.034;7.006;2022-12-11T13:11:41;30.97;;;18.03;;
10661;SDS011;5379;51.034;7.006;2022-12-11T13:14:22;31.23;;;18.93;;
10661;SDS011;5379;51.034;7.006;2022-12-11T13:17:04;21.27;;;15.90;;
10661;SDS011;5379;51.034;7.006;2022-12-11T13:19:33;21.03;;;14.60;;
10661;SDS011;5379;51.034;7.006;2022-12-11T13:22:02;28.03;;;15.97;;
10661;SDS011;5379;51.034;7.006;2022-12-11T13:24:46;21.87;;;15.70;;
10661;SDS011;5379;51.034;7.006;2022-12-11T13:27:22;25.73;;;15.30;;
10661;SDS011;5379;51.034;7.006;2022-12-11T13:29:50;21.67;;;15.37;;
10661;SDS011;5379;51.034;7.006;2022-12-11T13:32:21;21.07;;;14.80;;
10661;SDS011;5379;51.034;7.006;2022-12-11T13:34:50;23.60;;;14.10;;
10661;SDS011;5379;51.034;7.006;2022-12-11T13:37:22;25.07;;;15.27;;
10661;SDS011;5379;51.034;7.006;2022-12-11T13:39:54;24.50;;;15.77;;
10661;SDS011;5379;51.034;7.006;2022-12-11T13:42:23;25.73;;;14.40;;
10661;SDS011;5379;51.034;7.006;2022-12-11T13:44:54;17.63;;;13.87;;
10661;SDS011;5379;51.034;7.006;2022-12-11T13:47:21;16.70;;;12.80;;
10661;SDS011;5379;51.034;7.006;2022-12-11T13:49:51;22.13;;;13.00;;
10661;SDS011;5379;51.034;7.006;2022-12-11T13:52:21;21.37;;;12.60;;
10661;SDS011;5379;51.034;7.006;2022-12-11T13:54:52;22.50;;;12.50;;
10661;SDS011;5379;51.034;7.006;2022-12-11T13:57:23;21.03;;;14.07;;
10661;SDS011;5379;51.034;7.006;2022-12-11T13:59:53;19.90;;;12.43;;
10661;SDS011;5379;51.034;7.006;2022-12-11T14:02:22;24.33;;;13.43;;
10661;SDS011;5379;51.034;7.006;2022-12-11T14:04:54;19.60;;;13.30;;
10661;SDS011;5379;51.034;7.006;2022-12-11T14:07:25;19.63;;;13.07;;
10661;SDS011;5379;51.034;7.006;2022-12-11T14:09:58;20.83;;;11.67;;
10661;SDS011;5379;51.034;7.006;2022-12-11T14:12:27;17.63;;;12.90;;
10661;SDS011;5379;51.034;7.006;2022-12-11T14:14:56;23.33;;;13.40;;
10661;SDS011;5379;51.034;7.006;2022-12-11T14:17:27;21.20;;;14.20;;
10661;SDS011;5379;51.034;7.006;2022-12-11T14:19:56;19.87;;;13.27;;
10661;SDS011;5379;51.034;7.006;2022-12-11T14:22:26;20.60;;;14.27;;
10661;SDS011;5379;51.034;7.006;2022-12-11T14:24:55;26.43;;;15.80;;
10661;SDS011;5379;51.034;7.006;2022-12-11T14:27:24;18.07;;;13.77;;
10661;SDS011;5379;51.034;7.006;2022-12-11T14:29:52;21.77;;;15.43;;
10661;SDS011;5379;51.034;7.006;2022-12-11T14:32:24;29.47;;;15.73;;
10661;SDS011;5379;51.034;7.006;2022-12-11T14:34:56;25.63;;;16.03;;
10661;SDS011;5379;51.034;7.006;2022-12-11T14:37:24;35.10;;;16.93;;
10661;SDS011;5379;51.034;7.006;2022-12-11T14:39:55;22.67;;;17.17;;
10661;SDS011;5379;51.034;7.006;2022-12-11T14:42:26;24.93;;;16.03;;
10661;SDS011;5379;51.034;7.006;2022-12-11T14:44:57;29.90;;;16.37;;
10661;SDS011;5379;51.034;7.006;2022-12-11T14:47:29;27.63;;;16.53;;
10661;SDS011;5379;51.034;7.006;2022-12-11T14:50:00;24.57;;;14.93;;
10661;SDS011;5379;51.034;7.006;2022-12-11T14:52:32;21.97;;;15.90;;
10661;SDS011;5379;51.034;7.006;2022-12-11T14:55:06;25.57;;;15.37;;
10661;SDS011;5379;51.034;7.006;2022-12-11T14:57:38;22.73;;;15.13;;
10661;SDS011;5379;51.034;7.006;2022-12-11T15:00:19;30.53;;;18.63;;
10661;SDS011;5379;51.034;7.006;2022-12-11T15:02:55;26.90;;;17.53;;
10661;SDS011;5379;51.034;7.006;2022-12-11T15:05:23;23.97;;;15.23;;
10661;SDS011;5379;51.034;7.006;2022-12-11T15:07:55;24.53;;;17.37;;
10661;SDS011;5379;51.034;7.006;2022-12-11T15:10:26;30.20;;;16.40;;
10661;SDS011;5379;51.034;7.006;2022-12-11T15:13:01;24.57;;;15.33;;
10661;SDS011;5379;51.034;7.006;2022-12-11T15:15:29;28.20;;;16.90;;
10661;SDS011;5379;51.034;7.006;2022-12-11T15:18:03;28.00;;;17.73;;
10661;SDS011;5379;51.034;7.006;2022-12-11T15:20:37;30.50;;;17.23;;
10661;SDS011;5379;51.034;7.006;2022-12-11T15:23:05;22.73;;;15.93;;
10661;SDS011;5379;51.034;7.006;2022-12-11T15:25:34;22.80;;;16.33;;
10661;SDS011;5379;51.034;7.006;2022-12-11T15:28:02;25.23;;;17.40;;
10661;SDS011;5379;51.034;7.006;2022-12-11T15:30:30;26.73;;;18.10;;
10661;SDS011;5379;51.034;7.006;2022-12-11T15:33:17;26.10;;;17.73;;
10661;SDS011;5379;51.034;7.006;2022-12-11T15:35:59;23.93;;;16.67;;
10661;SDS011;5379;51.034;7.006;2022-12-11T15:38:28;24.90;;;18.03;;
10661;SDS011;5379;51.034;7.006;2022-12-11T15:41:02;27.00;;;17.27;;
10661;SDS011;5379;51.034;7.006;2022-12-11T15:43:31;31.70;;;17.30;;
10661;SDS011;5379;51.034;7.006;2022-12-11T15:46:01;22.13;;;16.70;;
10661;SDS011;5379;51.034;7.006;2022-12-11T15:48:28;28.70;;;16.20;;
10661;SDS011;5379;51.034;7.006;2022-12-11T15:50:55;30.17;;;18.53;;
10661;SDS011;5379;51.034;7.006;2022-12-11T15:53:22;19.33;;;15.77;;
10661;SDS011;5379;51.034;7.006;2022-12-11T15:55:49;31.07;;;17.83;;
10661;SDS011;5379;51.034;7.006;2022-12-11T15:58:19;22.77;;;16.63;;
10661;SDS011;5379;51.034;7.006;2022-12-11T16:00:48;29.67;;;18.30;;
10661;SDS011;5379;51.034;7.006;2022-12-11T16:03:17;29.03;;;17.97;;
10661;SDS011;5379;51.034;7.006;2022-12-11T16:05:45;25.90;;;17.67;;
10661;SDS011;5379;51.034;7.006;2022-12-11T16:08:14;23.90;;;16.40;;
10661;SDS011;5379;51.034;7.006;2022-12-11T16:10:43;35.30;;;17.80;;
10661;SDS011;5379;51.034;7.006;2022-12-11T16:13:11;26.80;;;17.37;;
10661;SDS011;5379;51.034;7.006;2022-12-11T16:15:40;23.30;;;17.10;;
10661;SDS011;5379;51.034;7.006;2022-12-11T16:18:09;25.13;;;17.03;;
10661;SDS011;5379;51.034;7.006;2022-12-11T16:20:38;26.47;;;17.37;;
10661;SDS011;5379;51.034;7.006;2022-12-11T16:23:06;27.57;;;16.50;;
10661;SDS011;5379;51.034;7.006;2022-12-11T16:25:35;26.47;;;16.90;;
10661;SDS011;5379;51.034;7.006;2022-12-11T16:28:03;28.10;;;17.07;;
10661;SDS011;5379;51.034;7.006;2022-12-11T16:30:31;27.67;;;17.50;;
10661;SDS011;5379;51.034;7.006;2022-12-11T16:33:02;25.70;;;17.03;;
10661;SDS011;5379;51.034;7.006;2022-12-11T16:35:30;23.63;;;16.90;;
10661;SDS011;5379;51.034;7.006;2022-12-11T16:37:57;24.57;;;16.90;;
10661;SDS011;5379;51.034;7.006;2022-12-11T16:40:24;25.10;;;16.73;;
10661;SDS011;5379;51.034;7.006;2022-12-11T16:42:51;33.33;;;21.70;;
10661;SDS011;5379;51.034;7.006;2022-12-11T16:45:19;27.93;;;17.27;;
10661;SDS011;5379;51.034;7.006;2022-12-11T16:47:48;23.67;;;16.93;;
10661;SDS011;5379;51.034;7.006;2022-12-11T16:50:16;24.40;;;17.23;;
10661;SDS011;5379;51.034;7.006;2022-12-11T16:52:44;29.20;;;18.37;;
10661;SDS011;5379;51.034;7.006;2022-12-11T16:55:11;27.50;;;19.17;;
10661;SDS011;5379;51.034;7.006;2022-12-11T16:57:39;25.07;;;18.63;;
10661;SDS011;5379;51.034;7.006;2022-12-11T17:00:07;24.93;;;17.57;;
10661;SDS011;5379;51.034;7.006;2022-12-11T17:02:38;31.97;;;18.00;;
10661;SDS011;5379;51.034;7.006;2022-12-11T17:05:05;42.20;;;24.50;;
10661;SDS011;5379;51.034;7.006;2022-12-11T17:07:34;28.07;;;18.60;;
10661;SDS011;5379;51.034;7.006;2022-12-11T17:10:01;31.97;;;17.33;;
10661;SDS011;5379;51.034;7.006;2022-12-11T17:12:29;28.77;;;17.73;;
10661;SDS011;5379;51.034;7.006;2022-12-11T17:14:56;24.40;;;17.03;;
10661;SDS011;5379;51.034;7.006;2022-12-11T17:17:23;28.47;;;17.33;;
10661;SDS011;5379;51.034;7.006;2022-12-11T17:19:50;27.13;;;17.43;;
10661;SDS011;5379;51.034;7.006;2022-12-11T17:22:17;30.00;;;17.90;;
10661;SDS011;5379;51.034;7.006;2022-12-11T17:24:46;34.53;;;18.50;;
10661;SDS011;5379;51.034;7.006;2022-12-11T17:27:15;30.23;;;16.80;;
10661;SDS011;5379;51.034;7.006;2022-12-11T17:29:42;30.70;;;16.03;;
10661;SDS011;5379;51.034;7.006;2022-12-11T17:32:09;27.73;;;17.37;;
10661;SDS011;5379;51.034;7.006;2022-12-11T17:34:36;28.00;;;16.70;;
10661;SDS011;5379;51.034;7.006;2022-12-11T17:37:03;29.43;;;16.30;;
10661;SDS011;5379;51.034;7.006;2022-12-11T17:39:31;20.60;;;15.60;;
10661;SDS011;5379;51.034;7.006;2022-12-11T17:41:59;22.70;;;15.37;;
10661;SDS011;5379;51.034;7.006;2022-12-11T17:44:26;25.07;;;16.93;;
10661;SDS011;5379;51.034;7.006;2022-12-11T17:46:55;26.27;;;17.40;;
10661;SDS011;5379;51.034;7.006;2022-12-11T17:49:22;25.97;;;16.43;;
10661;SDS011;5379;51.034;7.006;2022-12-11T17:51:50;22.93;;;17.00;;
10661;SDS011;5379;51.034;7.006;2022-12-11T17:54:19;27.20;;;17.27;;
10661;SDS011;5379;51.034;7.006;2022-12-11T17:56:46;22.13;;;16.57;;
10661;SDS011;5379;51.034;7.006;2022-12-11T17:59:15;26.23;;;17.03;;
10661;SDS011;5379;51.034;7.006;2022-12-11T18:01:42;27.17;;;18.43;;
10661;SDS011;5379;51.034;7.006;2022-12-11T18:04:09;28.33;;;18.17;;
10661;SDS011;5379;51.034;7.006;2022-12-11T18:06:36;25.63;;;16.80;;
10661;SDS011;5379;51.034;7.006;2022-12-11T18:09:03;25.60;;;16.77;;
10661;SDS011;5379;51.034;7.006;2022-12-11T18:11:30;26.80;;;16.97;;
10661;SDS011;5379;51.034;7.006;2022-12-11T18:13:57;27.33;;;16.07;;
10661;SDS011;5379;51.034;7.006;2022-12-11T18:16:27;24.03;;;15.47;;
10661;SDS011;5379;51.034;7.006;2022-12-11T18:18:55;24.77;;;15.43;;
10661;SDS011;5379;51.034;7.006;2022-12-11T18:21:23;34.43;;;18.13;;
10661;SDS011;5379;51.034;7.006;2022-12-11T18:23:52;24.13;;;17.13;;
10661;SDS011;5379;51.034;7.006;2022-12-11T18:26:19;31.70;;;16.30;;
10661;SDS011;5379;51.034;7.006;2022-12-11T18:28:47;27.40;;;17.00;;
10661;SDS011;5379;51.034;7.006;2022-12-11T18:31:15;30.20;;;17.80;;
10661;SDS011;5379;51.034;7.006;2022-12-11T18:33:44;30.90;;;16.17;;
10661;SDS011;5379;51.034;7.006;2022-12-11T18:36:12;22.63;;;16.70;;
10661;SDS011;5379;51.034;7.006;2022-12-11T18:38:41;22.90;;;15.93;;
10661;SDS011;5379;51.034;7.006;2022-12-11T18:41:09;21.47;;;15.50;;
10661;SDS011;5379;51.034;7.006;2022-12-11T18:43:37;23.50;;;15.93;;
10661;SDS011;5379;51.034;7.006;2022-12-11T18:46:05;25.20;;;16.87;;